Weather at Methodist Hospital Metropolitan Helipad

Public forecast

Using degrees Fahrenheit for public forecast. Weather courtesy of forecast.io.

Closest aviation weather report (METAR) to Methodist Hospital Metropolitan Helipad

Closest report is San Antonio International Airport, 5.6 nm (10.5 km) NNE.

2024/07/21 05:51 (retrieved 56 minutes ago)

KSAT 210551Z 16010KT 10SM CLR 27/23 A3002 RMK AO2 SLP147 T02720228 10344 20272 403670244 50004

Closest aviation forecast (TAF) to Methodist Hospital Metropolitan Helipad

Closest forecast is San Antonio International Airport, 5.6 nm (10.5 km) NNE.

2024/07/21 06:22 (retrieved 25 minutes ago)

TAF KSAT 210520Z 2106/2212 18004KT P6SM FEW040 FEW250 TEMPO 2111/2115 BKN015 FM211800 12007KT P6SM SCT050 PROB30 2122/2203 VRB15G25KT 3SM TSRA BKN025CB